AAR462 HAAB-OEJN
Flight info
| Callsign | AAR462 |
|---|---|
| Flight time | 1h 46m |
| Altitude | 38000 |
| Route | EKBOB1A EKBOB DCT KONET/N0486F390 UG650 RASKA/N0485F400 T513 EGMEG |
| Aircraft | A359/H-SDE2E3GHIJ3J4J5LM1ORWXY/LB1D1 |
Departure
| Time | 2026-04-27 10:03 |
|---|---|
| Airport | Addis Ababa Bole International Airport (HAAB) |
Arrival
| Time | 2026-04-27 11:50 |
|---|---|
| Airport | King Abdulaziz International Airport (OEJN) |
| Time | Latitude | Longitude | Altitude | Speed | Heading |
|---|---|---|---|---|---|
| 2026-04-27 09:21 | 8.98213 | 38.79533 | 7545 ft | 0 kts | 344° |
| 2026-04-27 09:55 | 8.98212 | 38.79533 | 7550 ft | 1 kts | 344° |
| 2026-04-27 09:55 | 8.98190 | 38.79539 | 7539 ft | 4 kts | 344° |
| 2026-04-27 09:55 | 8.98143 | 38.79562 | 7540 ft | 4 kts | 300° |
| 2026-04-27 09:56 | 8.98138 | 38.79584 | 7545 ft | 2 kts | 259° |
| 2026-04-27 09:56 | 8.98139 | 38.79589 | 7544 ft | 0 kts | 259° |
| 2026-04-27 09:56 | 8.98139 | 38.79588 | 7544 ft | 0 kts | 259° |
| 2026-04-27 09:57 | 8.98137 | 38.79581 | 7545 ft | 7 kts | 258° |
| 2026-04-27 09:58 | 8.98112 | 38.79476 | 7538 ft | 18 kts | 256° |
| 2026-04-27 09:58 | 8.98078 | 38.79364 | 7538 ft | 16 kts | 254° |
| 2026-04-27 09:58 | 8.98048 | 38.79258 | 7538 ft | 15 kts | 254° |
| 2026-04-27 09:58 | 8.98025 | 38.79157 | 7538 ft | 15 kts | 255° |
| 2026-04-27 09:59 | 8.97998 | 38.79060 | 7538 ft | 14 kts | 254° |
| 2026-04-27 09:59 | 8.97970 | 38.78965 | 7537 ft | 14 kts | 252° |
| 2026-04-27 09:59 | 8.97936 | 38.78850 | 7537 ft | 19 kts | 252° |
| 2026-04-27 09:59 | 8.97887 | 38.78741 | 7537 ft | 10 kts | 217° |
| 2026-04-27 10:00 | 8.97828 | 38.78749 | 7535 ft | 18 kts | 165° |
| 2026-04-27 10:00 | 8.97667 | 38.78794 | 7528 ft | 25 kts | 163° |
| 2026-04-27 10:00 | 8.97580 | 38.78815 | 7528 ft | 0 kts | 190° |
| 2026-04-27 10:00 | 8.97568 | 38.78805 | 7529 ft | 13 kts | 221° |
| 2026-04-27 10:01 | 8.97528 | 38.78683 | 7528 ft | 19 kts | 253° |
| 2026-04-27 10:01 | 8.97487 | 38.78549 | 7529 ft | 21 kts | 253° |
| 2026-04-27 10:01 | 8.97442 | 38.78401 | 7527 ft | 23 kts | 253° |
| 2026-04-27 10:01 | 8.97363 | 38.78273 | 7527 ft | 18 kts | 191° |
| 2026-04-27 10:02 | 8.97287 | 38.78323 | 7535 ft | 26 kts | 130° |
| 2026-04-27 10:02 | 8.97288 | 38.78553 | 7543 ft | 55 kts | 74° |
| 2026-04-27 10:02 | 8.97454 | 38.79116 | 7535 ft | 110 kts | 73° |
| 2026-04-27 10:02 | 8.97720 | 38.80023 | 7541 ft | 157 kts | 73° |
| 2026-04-27 10:03 | 8.98059 | 38.81205 | 7670 ft | 182 kts | 75° |
| 2026-04-27 10:03 | 8.98398 | 38.82427 | 8106 ft | 182 kts | 75° |
| 2026-04-27 10:03 | 8.98728 | 38.83646 | 8819 ft | 178 kts | 75° |
| 2026-04-27 10:03 | 8.99052 | 38.84886 | 9454 ft | 188 kts | 76° |
| 2026-04-27 10:04 | 8.99384 | 38.86208 | 10049 ft | 200 kts | 76° |
| 2026-04-27 10:04 | 8.99734 | 38.87624 | 10532 ft | 219 kts | 75° |
| 2026-04-27 10:04 | 9.00160 | 38.89193 | 10907 ft | 243 kts | 74° |
| 2026-04-27 10:04 | 9.00628 | 38.90898 | 11251 ft | 260 kts | 74° |
| 2026-04-27 10:05 | 9.01127 | 38.92723 | 11533 ft | 278 kts | 74° |
| 2026-04-27 10:05 | 9.01650 | 38.94648 | 11845 ft | 296 kts | 74° |
| 2026-04-27 10:05 | 9.01995 | 38.96758 | 12132 ft | 314 kts | 89° |
| 2026-04-27 10:05 | 9.02282 | 38.98991 | 12394 ft | 329 kts | 69° |
| 2026-04-27 10:06 | 9.03530 | 39.00972 | 12641 ft | 344 kts | 44° |
| 2026-04-27 10:06 | 9.05575 | 39.02258 | 13066 ft | 353 kts | 19° |
| 2026-04-27 10:06 | 9.07968 | 39.02910 | 13593 ft | 360 kts | 16° |
| 2026-04-27 10:06 | 9.10334 | 39.03775 | 14125 ft | 363 kts | 25° |
| 2026-04-27 10:07 | 9.12582 | 39.04956 | 14643 ft | 366 kts | 31° |
| 2026-04-27 10:07 | 9.14750 | 39.06341 | 15106 ft | 371 kts | 34° |
| 2026-04-27 10:07 | 9.16845 | 39.07831 | 15644 ft | 374 kts | 37° |
| 2026-04-27 10:07 | 9.18942 | 39.09408 | 16161 ft | 378 kts | 38° |
| 2026-04-27 10:08 | 9.21037 | 39.11034 | 16684 ft | 381 kts | 39° |
| 2026-04-27 10:08 | 9.23132 | 39.12686 | 17187 ft | 384 kts | 39° |
| 2026-04-27 10:08 | 9.25249 | 39.14342 | 17739 ft | 386 kts | 38° |
| 2026-04-27 10:08 | 9.27601 | 39.15693 | 18215 ft | 393 kts | 24° |
| 2026-04-27 10:09 | 9.30269 | 39.16371 | 18637 ft | 400 kts | 9° |
| 2026-04-27 10:09 | 9.33051 | 39.16643 | 19089 ft | 403 kts | 6° |
| 2026-04-27 10:09 | 9.35814 | 39.16857 | 19542 ft | 405 kts | 6° |
| 2026-04-27 10:09 | 9.38632 | 39.17076 | 19997 ft | 407 kts | 6° |
| 2026-04-27 10:10 | 9.41463 | 39.17303 | 20467 ft | 409 kts | 6° |
| 2026-04-27 10:10 | 9.44312 | 39.17538 | 20920 ft | 412 kts | 6° |
| 2026-04-27 10:10 | 9.47175 | 39.17776 | 21378 ft | 414 kts | 6° |
| 2026-04-27 10:10 | 9.50058 | 39.18016 | 21828 ft | 417 kts | 6° |
| 2026-04-27 10:11 | 9.52955 | 39.18259 | 22265 ft | 419 kts | 6° |
| 2026-04-27 10:11 | 9.55877 | 39.18504 | 22699 ft | 422 kts | 6° |
| 2026-04-27 10:11 | 9.58810 | 39.18751 | 22975 ft | 424 kts | 6° |
| 2026-04-27 10:11 | 9.61710 | 39.18994 | 23019 ft | 424 kts | 6° |
| 2026-04-27 10:12 | 9.64657 | 39.19242 | 22995 ft | 425 kts | 6° |
| 2026-04-27 10:12 | 9.67607 | 39.19490 | 22994 ft | 426 kts | 6° |
| 2026-04-27 10:12 | 9.70568 | 39.19743 | 23104 ft | 428 kts | 6° |
| 2026-04-27 10:12 | 9.73541 | 39.19993 | 23511 ft | 429 kts | 6° |
| 2026-04-27 10:13 | 9.76524 | 39.20243 | 23902 ft | 431 kts | 6° |
| 2026-04-27 10:13 | 9.79515 | 39.20494 | 24278 ft | 432 kts | 6° |
| 2026-04-27 10:13 | 9.82515 | 39.20748 | 24657 ft | 434 kts | 6° |
| 2026-04-27 10:13 | 9.85539 | 39.21002 | 25022 ft | 437 kts | 6° |
| 2026-04-27 10:14 | 9.88537 | 39.21255 | 25426 ft | 439 kts | 6° |
| 2026-04-27 10:14 | 9.91583 | 39.21512 | 25847 ft | 441 kts | 6° |
| 2026-04-27 10:14 | 9.94656 | 39.21771 | 26269 ft | 444 kts | 6° |
| 2026-04-27 10:14 | 9.97735 | 39.22030 | 26659 ft | 446 kts | 6° |
| 2026-04-27 10:15 | 10.00846 | 39.22293 | 27036 ft | 450 kts | 6° |
| 2026-04-27 10:15 | 10.03965 | 39.22556 | 27462 ft | 452 kts | 6° |
| 2026-04-27 10:15 | 10.07118 | 39.22822 | 27879 ft | 455 kts | 6° |
| 2026-04-27 10:15 | 10.10273 | 39.23089 | 28277 ft | 457 kts | 6° |
| 2026-04-27 10:16 | 10.13453 | 39.23357 | 28693 ft | 459 kts | 6° |
| 2026-04-27 10:16 | 10.16650 | 39.23627 | 29074 ft | 462 kts | 6° |
| 2026-04-27 10:16 | 10.19818 | 39.23895 | 29450 ft | 465 kts | 6° |
| 2026-04-27 10:16 | 10.23049 | 39.24169 | 29832 ft | 467 kts | 6° |
| 2026-04-27 10:17 | 10.26294 | 39.24444 | 30172 ft | 470 kts | 5° |
| 2026-04-27 10:17 | 10.29561 | 39.24720 | 30517 ft | 471 kts | 5° |
| 2026-04-27 10:17 | 10.32837 | 39.24996 | 30843 ft | 473 kts | 5° |
| 2026-04-27 10:17 | 10.36120 | 39.25273 | 31175 ft | 474 kts | 5° |
| 2026-04-27 10:18 | 10.39414 | 39.25551 | 31512 ft | 476 kts | 5° |
| 2026-04-27 10:18 | 10.42676 | 39.25827 | 31815 ft | 478 kts | 5° |
| 2026-04-27 10:18 | 10.45992 | 39.26108 | 32129 ft | 479 kts | 5° |
| 2026-04-27 10:18 | 10.49326 | 39.26390 | 32397 ft | 481 kts | 5° |
| 2026-04-27 10:19 | 10.52671 | 39.26673 | 32687 ft | 483 kts | 5° |
| 2026-04-27 10:19 | 10.56024 | 39.26957 | 33009 ft | 484 kts | 5° |
| 2026-04-27 10:19 | 10.59381 | 39.27241 | 33297 ft | 485 kts | 5° |
| 2026-04-27 10:19 | 10.62747 | 39.27526 | 33561 ft | 487 kts | 5° |
| 2026-04-27 10:20 | 10.66127 | 39.27813 | 33846 ft | 488 kts | 5° |
| 2026-04-27 10:20 | 10.69471 | 39.28084 | 34072 ft | 489 kts | 3° |
| 2026-04-27 10:20 | 10.72880 | 39.28098 | 34275 ft | 490 kts | 357° |
| 2026-04-27 10:20 | 10.76282 | 39.27912 | 34557 ft | 490 kts | 356° |
| 2026-04-27 10:21 | 10.79684 | 39.27699 | 34827 ft | 489 kts | 356° |
| 2026-04-27 10:21 | 10.83079 | 39.27484 | 35098 ft | 489 kts | 356° |
| 2026-04-27 10:21 | 10.86476 | 39.27271 | 35340 ft | 489 kts | 356° |
| 2026-04-27 10:21 | 10.89868 | 39.27060 | 35634 ft | 488 kts | 356° |
| 2026-04-27 10:22 | 10.93253 | 39.26850 | 35894 ft | 487 kts | 356° |
| 2026-04-27 10:22 | 10.96587 | 39.26643 | 36151 ft | 486 kts | 356° |
| 2026-04-27 10:22 | 10.99965 | 39.26433 | 36404 ft | 486 kts | 357° |
| 2026-04-27 10:22 | 11.03340 | 39.26224 | 36642 ft | 486 kts | 357° |
| 2026-04-27 10:23 | 11.06710 | 39.26015 | 36879 ft | 485 kts | 357° |
| 2026-04-27 10:23 | 11.10079 | 39.25806 | 37098 ft | 485 kts | 356° |
| 2026-04-27 10:23 | 11.13447 | 39.25597 | 37331 ft | 485 kts | 356° |
| 2026-04-27 10:23 | 11.16809 | 39.25389 | 37561 ft | 484 kts | 356° |
| 2026-04-27 10:24 | 11.20124 | 39.25183 | 37787 ft | 484 kts | 356° |
| 2026-04-27 10:24 | 11.23478 | 39.24975 | 37995 ft | 483 kts | 356° |
| 2026-04-27 10:24 | 11.26834 | 39.24767 | 38214 ft | 483 kts | 356° |
| 2026-04-27 10:24 | 11.30184 | 39.24559 | 38430 ft | 482 kts | 357° |
| 2026-04-27 10:25 | 11.33528 | 39.24352 | 38618 ft | 482 kts | 357° |
| 2026-04-27 10:25 | 11.36874 | 39.24144 | 38785 ft | 481 kts | 357° |
| 2026-04-27 10:25 | 11.40216 | 39.23935 | 38938 ft | 481 kts | 357° |
| 2026-04-27 10:25 | 11.43516 | 39.23660 | 39013 ft | 483 kts | 355° |
| 2026-04-27 10:26 | 11.50239 | 39.22898 | 39017 ft | 489 kts | 354° |
| 2026-04-27 10:26 | 11.57035 | 39.22095 | 39018 ft | 493 kts | 354° |
| 2026-04-27 10:27 | 11.63874 | 39.21328 | 39002 ft | 495 kts | 354° |
| 2026-04-27 10:27 | 11.70731 | 39.20584 | 39006 ft | 496 kts | 354° |
| 2026-04-27 10:28 | 11.77539 | 39.19849 | 39012 ft | 495 kts | 354° |
| 2026-04-27 10:28 | 11.84382 | 39.19108 | 39012 ft | 495 kts | 354° |
| 2026-04-27 10:29 | 11.91232 | 39.18366 | 39020 ft | 495 kts | 354° |
| 2026-04-27 10:29 | 11.98073 | 39.17623 | 39022 ft | 494 kts | 353° |
| 2026-04-27 10:30 | 12.04852 | 39.16888 | 39007 ft | 492 kts | 353° |
| 2026-04-27 10:30 | 12.11659 | 39.16149 | 39011 ft | 492 kts | 353° |
| 2026-04-27 10:31 | 12.18476 | 39.15408 | 39002 ft | 492 kts | 353° |
| 2026-04-27 10:31 | 12.25286 | 39.14667 | 38996 ft | 492 kts | 353° |
| 2026-04-27 10:32 | 12.32099 | 39.13926 | 38988 ft | 492 kts | 353° |
| 2026-04-27 10:32 | 12.38867 | 39.13188 | 38967 ft | 492 kts | 353° |
| 2026-04-27 10:33 | 12.45680 | 39.12447 | 38967 ft | 492 kts | 353° |
| 2026-04-27 10:33 | 12.52488 | 39.11706 | 38923 ft | 492 kts | 353° |
| 2026-04-27 10:34 | 12.59286 | 39.10965 | 38931 ft | 491 kts | 353° |
| 2026-04-27 10:34 | 12.66045 | 39.10227 | 38904 ft | 492 kts | 353° |
| 2026-04-27 10:35 | 12.72850 | 39.09484 | 38878 ft | 492 kts | 353° |
| 2026-04-27 10:35 | 12.79651 | 39.08741 | 38877 ft | 492 kts | 353° |
| 2026-04-27 10:36 | 12.86456 | 39.07997 | 38861 ft | 492 kts | 353° |
| 2026-04-27 10:36 | 12.93223 | 39.07258 | 38860 ft | 492 kts | 353° |
| 2026-04-27 10:37 | 13.00033 | 39.06515 | 38849 ft | 492 kts | 353° |
| 2026-04-27 10:37 | 13.06845 | 39.05768 | 38841 ft | 492 kts | 353° |
| 2026-04-27 10:38 | 13.13653 | 39.05022 | 38849 ft | 492 kts | 353° |
| 2026-04-27 10:38 | 13.20423 | 39.04281 | 38854 ft | 492 kts | 353° |
| 2026-04-27 10:39 | 13.27234 | 39.03535 | 38853 ft | 493 kts | 353° |
| 2026-04-27 10:39 | 13.34050 | 39.02787 | 38855 ft | 493 kts | 353° |
| 2026-04-27 10:40 | 13.40867 | 39.02038 | 38852 ft | 493 kts | 353° |
| 2026-04-27 10:40 | 13.47639 | 39.01295 | 38857 ft | 493 kts | 353° |
| 2026-04-27 10:41 | 13.54462 | 39.00545 | 38866 ft | 493 kts | 353° |
| 2026-04-27 10:41 | 13.61282 | 38.99796 | 38860 ft | 493 kts | 353° |
| 2026-04-27 10:42 | 13.68102 | 38.99046 | 38870 ft | 493 kts | 353° |
| 2026-04-27 10:42 | 13.74925 | 38.98295 | 38874 ft | 493 kts | 353° |
| 2026-04-27 10:43 | 13.81697 | 38.97549 | 38882 ft | 493 kts | 353° |
| 2026-04-27 10:43 | 13.88512 | 38.96798 | 38889 ft | 493 kts | 353° |
| 2026-04-27 10:44 | 13.95331 | 38.96047 | 38884 ft | 493 kts | 353° |
| 2026-04-27 10:44 | 14.02142 | 38.95296 | 38891 ft | 493 kts | 353° |
| 2026-04-27 10:45 | 14.08893 | 38.94551 | 39212 ft | 487 kts | 353° |
| 2026-04-27 10:45 | 14.12253 | 38.94180 | 39414 ft | 484 kts | 353° |
| 2026-04-27 10:45 | 14.15593 | 38.93811 | 39652 ft | 481 kts | 353° |
| 2026-04-27 10:46 | 14.18911 | 38.93444 | 39887 ft | 478 kts | 353° |
| 2026-04-27 10:46 | 14.22206 | 38.93080 | 40104 ft | 475 kts | 353° |
| 2026-04-27 10:46 | 14.25481 | 38.92718 | 40351 ft | 472 kts | 353° |
| 2026-04-27 10:46 | 14.28732 | 38.92358 | 40602 ft | 468 kts | 353° |
| 2026-04-27 10:47 | 14.31924 | 38.92005 | 40803 ft | 466 kts | 353° |
| 2026-04-27 10:47 | 14.35147 | 38.91648 | 40855 ft | 467 kts | 353° |
| 2026-04-27 10:47 | 14.41636 | 38.90929 | 40864 ft | 471 kts | 353° |
| 2026-04-27 10:48 | 14.48187 | 38.90208 | 40855 ft | 475 kts | 353° |
| 2026-04-27 10:48 | 14.54824 | 38.90002 | 40864 ft | 480 kts | 359° |
| 2026-04-27 10:49 | 14.61522 | 38.89988 | 40850 ft | 483 kts | 359° |
| 2026-04-27 10:49 | 14.68218 | 38.90010 | 40852 ft | 485 kts | 359° |
| 2026-04-27 10:50 | 14.74982 | 38.90027 | 40850 ft | 487 kts | 359° |
| 2026-04-27 10:50 | 14.81762 | 38.90036 | 40869 ft | 488 kts | 359° |
| 2026-04-27 10:51 | 14.88564 | 38.90042 | 40886 ft | 489 kts | 359° |
| 2026-04-27 10:51 | 14.95317 | 38.90049 | 40885 ft | 489 kts | 359° |
| 2026-04-27 10:52 | 15.02122 | 38.90056 | 40903 ft | 489 kts | 359° |
| 2026-04-27 10:52 | 15.08931 | 38.90063 | 40903 ft | 489 kts | 359° |
| 2026-04-27 10:53 | 15.19091 | 38.90073 | 40916 ft | 489 kts | 359° |
| 2026-04-27 10:54 | 15.25882 | 38.90081 | 40925 ft | 489 kts | 359° |
| 2026-04-27 10:54 | 15.32690 | 38.90143 | 40920 ft | 489 kts | 0° |
| 2026-04-27 10:55 | 15.39486 | 38.90410 | 40920 ft | 489 kts | 1° |
| 2026-04-27 10:55 | 15.46249 | 38.90701 | 40937 ft | 490 kts | 1° |
| 2026-04-27 10:56 | 15.53070 | 38.90966 | 40920 ft | 491 kts | 1° |
| 2026-04-27 10:56 | 15.59888 | 38.91214 | 40922 ft | 490 kts | 0° |
| 2026-04-27 10:57 | 15.66715 | 38.91457 | 40899 ft | 491 kts | 0° |
| 2026-04-27 10:57 | 15.73491 | 38.91699 | 40898 ft | 490 kts | 0° |
| 2026-04-27 10:58 | 15.80312 | 38.91944 | 40885 ft | 491 kts | 0° |
| 2026-04-27 10:58 | 15.87135 | 38.92189 | 40873 ft | 491 kts | 0° |
| 2026-04-27 10:59 | 15.93958 | 38.92435 | 40869 ft | 491 kts | 0° |
| 2026-04-27 10:59 | 16.00785 | 38.92680 | 40866 ft | 492 kts | 0° |
| 2026-04-27 11:00 | 16.11007 | 38.93050 | 40855 ft | 492 kts | 0° |
| 2026-04-27 11:00 | 16.17856 | 38.93297 | 40851 ft | 493 kts | 0° |
| 2026-04-27 11:01 | 16.24708 | 38.93545 | 40845 ft | 493 kts | 0° |
| 2026-04-27 11:01 | 16.31556 | 38.93793 | 40841 ft | 492 kts | 0° |
| 2026-04-27 11:02 | 16.38359 | 38.94039 | 40830 ft | 492 kts | 0° |
| 2026-04-27 11:02 | 16.45207 | 38.94286 | 40827 ft | 492 kts | 0° |
| 2026-04-27 11:03 | 16.52052 | 38.94535 | 40820 ft | 492 kts | 360° |
| 2026-04-27 11:03 | 16.58900 | 38.94783 | 40822 ft | 492 kts | 360° |
| 2026-04-27 11:04 | 16.65698 | 38.95029 | 40818 ft | 492 kts | 360° |
| 2026-04-27 11:04 | 16.72543 | 38.95277 | 40818 ft | 492 kts | 360° |
| 2026-04-27 11:05 | 16.79391 | 38.95526 | 40821 ft | 493 kts | 360° |
| 2026-04-27 11:05 | 16.86194 | 38.95774 | 40817 ft | 493 kts | 360° |
| 2026-04-27 11:06 | 16.93048 | 38.96024 | 40816 ft | 493 kts | 360° |
| 2026-04-27 11:06 | 16.99906 | 38.96274 | 40815 ft | 493 kts | 360° |
| 2026-04-27 11:07 | 17.06763 | 38.96523 | 40810 ft | 493 kts | 360° |
| 2026-04-27 11:07 | 17.13572 | 38.96772 | 40812 ft | 493 kts | 360° |
| 2026-04-27 11:08 | 17.20429 | 38.97022 | 40814 ft | 493 kts | 360° |
| 2026-04-27 11:08 | 17.27286 | 38.97273 | 40824 ft | 493 kts | 360° |
| 2026-04-27 11:09 | 17.34141 | 38.97523 | 40812 ft | 493 kts | 360° |
| 2026-04-27 11:09 | 17.40997 | 38.97774 | 40807 ft | 493 kts | 360° |
| 2026-04-27 11:10 | 17.47804 | 38.98023 | 40806 ft | 493 kts | 359° |
| 2026-04-27 11:10 | 17.54653 | 38.98267 | 40817 ft | 493 kts | 359° |
| 2026-04-27 11:11 | 17.61509 | 38.98511 | 40807 ft | 493 kts | 359° |
| 2026-04-27 11:11 | 17.68373 | 38.98756 | 40807 ft | 493 kts | 359° |
| 2026-04-27 11:12 | 17.75183 | 38.99001 | 40804 ft | 493 kts | 359° |
| 2026-04-27 11:12 | 17.82049 | 38.99248 | 40811 ft | 493 kts | 359° |
| 2026-04-27 11:13 | 17.88914 | 38.99495 | 40807 ft | 494 kts | 359° |
| 2026-04-27 11:13 | 17.95778 | 38.99742 | 40807 ft | 494 kts | 359° |
| 2026-04-27 11:14 | 18.02601 | 38.99988 | 40810 ft | 494 kts | 359° |
| 2026-04-27 11:14 | 18.09472 | 39.00236 | 40812 ft | 494 kts | 359° |
| 2026-04-27 11:15 | 18.16340 | 39.00484 | 40807 ft | 494 kts | 359° |
| 2026-04-27 11:15 | 18.23206 | 39.00798 | 40807 ft | 494 kts | 0° |
| 2026-04-27 11:16 | 18.30074 | 39.01203 | 40810 ft | 494 kts | 0° |
| 2026-04-27 11:16 | 18.36896 | 39.01603 | 40814 ft | 494 kts | 0° |
| 2026-04-27 11:17 | 18.43768 | 39.01990 | 40812 ft | 494 kts | 360° |
| 2026-04-27 11:17 | 18.50639 | 39.02370 | 40815 ft | 495 kts | 360° |
| 2026-04-27 11:18 | 18.57509 | 39.02749 | 40818 ft | 495 kts | 360° |
| 2026-04-27 11:18 | 18.64342 | 39.03127 | 40819 ft | 495 kts | 360° |
| 2026-04-27 11:19 | 18.71219 | 39.03508 | 40819 ft | 495 kts | 360° |
| 2026-04-27 11:19 | 18.78059 | 39.03273 | 40818 ft | 489 kts | 347° |
| 2026-04-27 11:20 | 18.84749 | 39.01989 | 40814 ft | 490 kts | 349° |
| 2026-04-27 11:20 | 18.91529 | 39.01508 | 40816 ft | 493 kts | 354° |
| 2026-04-27 11:21 | 18.98393 | 39.01261 | 40822 ft | 494 kts | 355° |
| 2026-04-27 11:21 | 19.05266 | 39.01037 | 40820 ft | 494 kts | 355° |
| 2026-04-27 11:22 | 19.12127 | 39.00820 | 40820 ft | 489 kts | 355° |
| 2026-04-27 11:22 | 19.18824 | 39.00611 | 40823 ft | 483 kts | 354° |
| 2026-04-27 11:23 | 19.25533 | 39.00399 | 40821 ft | 482 kts | 354° |
| 2026-04-27 11:23 | 19.32237 | 39.00187 | 40826 ft | 482 kts | 354° |
| 2026-04-27 11:24 | 19.35575 | 39.00244 | 40637 ft | 474 kts | 1° |
| 2026-04-27 11:24 | 19.38835 | 39.00619 | 39771 ft | 470 kts | 3° |
| 2026-04-27 11:24 | 19.42040 | 39.01100 | 38653 ft | 473 kts | 3° |
| 2026-04-27 11:24 | 19.45308 | 39.01616 | 37292 ft | 477 kts | 3° |
| 2026-04-27 11:25 | 19.48601 | 39.02139 | 35917 ft | 481 kts | 3° |
| 2026-04-27 11:25 | 19.51931 | 39.02670 | 34576 ft | 486 kts | 3° |
| 2026-04-27 11:25 | 19.55274 | 39.03205 | 33586 ft | 483 kts | 3° |
| 2026-04-27 11:25 | 19.58540 | 39.03734 | 33066 ft | 466 kts | 3° |
| 2026-04-27 11:26 | 19.61691 | 39.04244 | 32586 ft | 452 kts | 3° |
| 2026-04-27 11:26 | 19.64779 | 39.04739 | 32131 ft | 447 kts | 2° |
| 2026-04-27 11:26 | 19.67806 | 39.05221 | 31654 ft | 445 kts | 2° |
| 2026-04-27 11:26 | 19.70866 | 39.05709 | 31187 ft | 443 kts | 2° |
| 2026-04-27 11:27 | 19.73906 | 39.06194 | 30718 ft | 442 kts | 2° |
| 2026-04-27 11:27 | 19.76941 | 39.06680 | 30256 ft | 440 kts | 2° |
| 2026-04-27 11:27 | 19.79960 | 39.07163 | 29773 ft | 438 kts | 2° |
| 2026-04-27 11:27 | 19.82967 | 39.07645 | 29274 ft | 436 kts | 2° |
| 2026-04-27 11:28 | 19.85958 | 39.08125 | 28810 ft | 434 kts | 2° |
| 2026-04-27 11:28 | 19.88941 | 39.08603 | 28349 ft | 432 kts | 2° |
| 2026-04-27 11:28 | 19.91864 | 39.09073 | 27894 ft | 430 kts | 2° |
| 2026-04-27 11:28 | 19.94811 | 39.09546 | 27440 ft | 427 kts | 2° |
| 2026-04-27 11:29 | 19.97745 | 39.10017 | 26990 ft | 425 kts | 2° |
| 2026-04-27 11:29 | 20.00664 | 39.10486 | 26533 ft | 423 kts | 2° |
| 2026-04-27 11:29 | 20.03569 | 39.10953 | 26080 ft | 421 kts | 3° |
| 2026-04-27 11:29 | 20.06461 | 39.11418 | 25635 ft | 420 kts | 3° |
| 2026-04-27 11:30 | 20.09346 | 39.11882 | 25174 ft | 418 kts | 3° |
| 2026-04-27 11:30 | 20.12213 | 39.12344 | 24713 ft | 416 kts | 4° |
| 2026-04-27 11:30 | 20.15032 | 39.12797 | 24264 ft | 415 kts | 4° |
| 2026-04-27 11:30 | 20.17882 | 39.13256 | 23813 ft | 414 kts | 3° |
| 2026-04-27 11:31 | 20.20779 | 39.13719 | 23278 ft | 427 kts | 4° |
| 2026-04-27 11:31 | 20.23733 | 39.14192 | 22658 ft | 431 kts | 4° |
| 2026-04-27 11:31 | 20.26697 | 39.14672 | 22049 ft | 429 kts | 4° |
| 2026-04-27 11:31 | 20.29640 | 39.15149 | 21453 ft | 425 kts | 4° |
| 2026-04-27 11:32 | 20.32547 | 39.15620 | 20862 ft | 421 kts | 4° |
| 2026-04-27 11:32 | 20.35424 | 39.16086 | 20295 ft | 416 kts | 4° |
| 2026-04-27 11:32 | 20.38271 | 39.16547 | 19727 ft | 411 kts | 4° |
| 2026-04-27 11:32 | 20.41047 | 39.16995 | 19189 ft | 407 kts | 4° |
| 2026-04-27 11:33 | 20.43832 | 39.17446 | 18650 ft | 403 kts | 4° |
| 2026-04-27 11:33 | 20.46587 | 39.17891 | 18121 ft | 398 kts | 5° |
| 2026-04-27 11:33 | 20.49313 | 39.18332 | 17501 ft | 394 kts | 5° |
| 2026-04-27 11:33 | 20.52010 | 39.18768 | 16882 ft | 390 kts | 5° |
| 2026-04-27 11:34 | 20.54682 | 39.19200 | 16296 ft | 387 kts | 5° |
| 2026-04-27 11:34 | 20.57336 | 39.19629 | 15708 ft | 383 kts | 5° |
| 2026-04-27 11:34 | 20.59960 | 39.20054 | 15147 ft | 380 kts | 5° |
| 2026-04-27 11:34 | 20.62563 | 39.20476 | 14582 ft | 377 kts | 6° |
| 2026-04-27 11:35 | 20.65110 | 39.20888 | 14043 ft | 374 kts | 6° |
| 2026-04-27 11:35 | 20.67669 | 39.21304 | 13480 ft | 370 kts | 5° |
| 2026-04-27 11:35 | 20.70171 | 39.21711 | 12873 ft | 357 kts | 6° |
| 2026-04-27 11:35 | 20.72589 | 39.22104 | 12276 ft | 345 kts | 6° |
| 2026-04-27 11:36 | 20.74927 | 39.22483 | 11688 ft | 335 kts | 6° |
| 2026-04-27 11:36 | 20.77200 | 39.22852 | 11116 ft | 326 kts | 6° |
| 2026-04-27 11:36 | 20.79412 | 39.23210 | 10545 ft | 318 kts | 7° |
| 2026-04-27 11:36 | 20.81576 | 39.23561 | 10008 ft | 311 kts | 7° |
| 2026-04-27 11:37 | 20.83693 | 39.23904 | 9420 ft | 304 kts | 7° |
| 2026-04-27 11:37 | 20.85731 | 39.24235 | 9061 ft | 299 kts | 7° |
| 2026-04-27 11:37 | 20.87783 | 39.24569 | 8810 ft | 298 kts | 8° |
| 2026-04-27 11:37 | 20.89824 | 39.24901 | 8563 ft | 296 kts | 8° |
| 2026-04-27 11:38 | 20.91850 | 39.25231 | 8326 ft | 295 kts | 7° |
| 2026-04-27 11:38 | 20.93882 | 39.25561 | 8080 ft | 295 kts | 7° |
| 2026-04-27 11:38 | 20.95907 | 39.25891 | 7834 ft | 293 kts | 8° |
| 2026-04-27 11:38 | 20.97907 | 39.26217 | 7689 ft | 291 kts | 7° |
| 2026-04-27 11:39 | 20.99912 | 39.26543 | 7583 ft | 292 kts | 7° |
| 2026-04-27 11:39 | 21.01893 | 39.26865 | 7470 ft | 291 kts | 8° |
| 2026-04-27 11:39 | 21.03889 | 39.27190 | 7341 ft | 289 kts | 8° |
| 2026-04-27 11:39 | 21.05867 | 39.27513 | 7105 ft | 287 kts | 8° |
| 2026-04-27 11:40 | 21.07839 | 39.27834 | 6880 ft | 287 kts | 8° |
| 2026-04-27 11:40 | 21.09807 | 39.28155 | 6654 ft | 284 kts | 8° |
| 2026-04-27 11:40 | 21.11750 | 39.28472 | 6427 ft | 280 kts | 8° |
| 2026-04-27 11:40 | 21.13671 | 39.28785 | 6189 ft | 279 kts | 8° |
| 2026-04-27 11:41 | 21.15591 | 39.29098 | 5950 ft | 278 kts | 8° |
| 2026-04-27 11:41 | 21.17468 | 39.29405 | 5712 ft | 275 kts | 8° |
| 2026-04-27 11:41 | 21.19346 | 39.29713 | 5461 ft | 272 kts | 8° |
| 2026-04-27 11:41 | 21.21212 | 39.30017 | 5231 ft | 271 kts | 8° |
| 2026-04-27 11:42 | 21.23069 | 39.30321 | 5037 ft | 270 kts | 8° |
| 2026-04-27 11:42 | 21.24924 | 39.30624 | 4920 ft | 269 kts | 8° |
| 2026-04-27 11:42 | 21.26769 | 39.30925 | 4802 ft | 268 kts | 8° |
| 2026-04-27 11:42 | 21.27987 | 39.31124 | 4717 ft | 267 kts | 8° |
| 2026-04-27 11:43 | 21.29850 | 39.31429 | 4465 ft | 274 kts | 8° |
| 2026-04-27 11:43 | 21.31716 | 39.31574 | 3911 ft | 263 kts | 354° |
| 2026-04-27 11:43 | 21.33475 | 39.31138 | 3363 ft | 259 kts | 341° |
| 2026-04-27 11:43 | 21.35727 | 39.30277 | 3037 ft | 259 kts | 338° |
| 2026-04-27 11:44 | 21.37413 | 39.29608 | 3005 ft | 258 kts | 339° |
| 2026-04-27 11:44 | 21.39092 | 39.28942 | 3002 ft | 257 kts | 339° |
| 2026-04-27 11:44 | 21.40200 | 39.28501 | 3005 ft | 256 kts | 338° |
| 2026-04-27 11:44 | 21.41875 | 39.27836 | 3008 ft | 257 kts | 339° |
| 2026-04-27 11:45 | 21.43547 | 39.27174 | 3006 ft | 256 kts | 339° |
| 2026-04-27 11:45 | 21.45219 | 39.26515 | 2933 ft | 256 kts | 339° |
| 2026-04-27 11:45 | 21.47428 | 39.25646 | 2648 ft | 252 kts | 338° |
| 2026-04-27 11:45 | 21.48538 | 39.25209 | 2418 ft | 250 kts | 338° |
| 2026-04-27 11:46 | 21.50158 | 39.24572 | 2151 ft | 245 kts | 337° |
| 2026-04-27 11:46 | 21.51736 | 39.23948 | 2094 ft | 240 kts | 338° |
| 2026-04-27 11:46 | 21.53280 | 39.23337 | 2101 ft | 240 kts | 338° |
| 2026-04-27 11:46 | 21.54843 | 39.22719 | 2093 ft | 240 kts | 338° |
| 2026-04-27 11:47 | 21.56424 | 39.22092 | 2084 ft | 243 kts | 338° |
| 2026-04-27 11:47 | 21.58003 | 39.21467 | 1840 ft | 239 kts | 338° |
| 2026-04-27 11:47 | 21.59491 | 39.20883 | 1518 ft | 215 kts | 338° |
| 2026-04-27 11:47 | 21.60796 | 39.20367 | 1271 ft | 184 kts | 338° |
| 2026-04-27 11:48 | 21.61913 | 39.19925 | 1054 ft | 161 kts | 338° |
| 2026-04-27 11:48 | 21.62906 | 39.19531 | 835 ft | 147 kts | 339° |
| 2026-04-27 11:48 | 21.63852 | 39.19156 | 667 ft | 145 kts | 339° |
| 2026-04-27 11:48 | 21.64804 | 39.18779 | 480 ft | 148 kts | 340° |
| 2026-04-27 11:49 | 21.65775 | 39.18395 | 296 ft | 148 kts | 340° |
| 2026-04-27 11:49 | 21.66733 | 39.18018 | 105 ft | 145 kts | 336° |
| 2026-04-27 11:49 | 21.67633 | 39.17664 | 54 ft | 135 kts | 334° |
| 2026-04-27 11:49 | 21.68499 | 39.17325 | 33 ft | 125 kts | 339° |
| 2026-04-27 11:50 | 21.69196 | 39.17046 | 33 ft | 90 kts | 340° |
| 2026-04-27 11:50 | 21.69629 | 39.16873 | 29 ft | 48 kts | 339° |
| 2026-04-27 11:50 | 21.69752 | 39.16764 | 28 ft | 17 kts | 272° |
| 2026-04-27 11:50 | 21.69715 | 39.16684 | 28 ft | 10 kts | 215° |
| 2026-04-27 11:51 | 21.69673 | 39.16654 | 29 ft | 0 kts | 199° |
| 2026-04-27 11:51 | 21.69629 | 39.16651 | 29 ft | 17 kts | 175° |
| 2026-04-27 11:52 | 21.69511 | 39.16685 | 29 ft | 17 kts | 163° |
| 2026-04-27 11:52 | 21.69400 | 39.16720 | 30 ft | 17 kts | 178° |
| 2026-04-27 11:52 | 21.69318 | 39.16675 | 30 ft | 13 kts | 189° |
| 2026-04-27 11:52 | 21.69226 | 39.16696 | 30 ft | 17 kts | 159° |
| 2026-04-27 11:53 | 21.69101 | 39.16746 | 31 ft | 20 kts | 160° |
| 2026-04-27 11:53 | 21.68964 | 39.16800 | 32 ft | 22 kts | 160° |
| 2026-04-27 11:53 | 21.68819 | 39.16857 | 32 ft | 22 kts | 160° |
| 2026-04-27 11:53 | 21.68669 | 39.16916 | 33 ft | 23 kts | 160° |
| 2026-04-27 11:54 | 21.68511 | 39.16978 | 34 ft | 25 kts | 160° |
| 2026-04-27 11:54 | 21.68349 | 39.17043 | 34 ft | 26 kts | 160° |
| 2026-04-27 11:54 | 21.68178 | 39.17110 | 35 ft | 27 kts | 160° |
| 2026-04-27 11:54 | 21.68004 | 39.17167 | 36 ft | 23 kts | 187° |
| 2026-04-27 11:55 | 21.67941 | 39.17088 | 36 ft | 12 kts | 252° |
| 2026-04-27 11:55 | 21.67882 | 39.17052 | 36 ft | 12 kts | 181° |
| 2026-04-27 11:55 | 21.67745 | 39.17099 | 37 ft | 19 kts | 158° |
| 2026-04-27 11:55 | 21.67690 | 39.17107 | 37 ft | 1 kts | 228° |
| 2026-04-27 11:56 | 21.67682 | 39.17064 | 37 ft | 0 kts | 252° |
| 2026-04-27 11:56 | 21.67679 | 39.17054 | 37 ft | 6 kts | 251° |
| 2026-04-27 11:56 | 21.67674 | 39.17037 | 37 ft | 0 kts | 251° |